sensor_id;sensor_type;location;lat;lon;timestamp;temperature;humidity
3942;DHT22;1985;48.592;8.850;2024-01-30T00:02:22;4.50;99.90
3942;DHT22;1985;48.592;8.850;2024-01-30T00:04:48;4.50;99.90
3942;DHT22;1985;48.592;8.850;2024-01-30T00:07:13;4.50;99.90
3942;DHT22;1985;48.592;8.850;2024-01-30T00:09:39;4.40;99.90
3942;DHT22;1985;48.592;8.850;2024-01-30T00:12:07;4.40;99.90
3942;DHT22;1985;48.592;8.850;2024-01-30T00:14:33;4.40;99.90
3942;DHT22;1985;48.592;8.850;2024-01-30T00:16:58;4.30;99.90
3942;DHT22;1985;48.592;8.850;2024-01-30T00:19:24;4.30;99.90
3942;DHT22;1985;48.592;8.850;2024-01-30T00:21:50;4.30;99.90
3942;DHT22;1985;48.592;8.850;2024-01-30T00:24:15;4.30;99.90
3942;DHT22;1985;48.592;8.850;2024-01-30T00:26:41;4.40;99.90
3942;DHT22;1985;48.592;8.850;2024-01-30T00:29:07;4.40;99.90
3942;DHT22;1985;48.592;8.850;2024-01-30T00:31:32;4.30;99.90
3942;DHT22;1985;48.592;8.850;2024-01-30T00:33:58;4.30;99.90
3942;DHT22;1985;48.592;8.850;2024-01-30T00:36:23;4.30;99.90
3942;DHT22;1985;48.592;8.850;2024-01-30T00:38:49;4.30;99.90
3942;DHT22;1985;48.592;8.850;2024-01-30T00:41:17;4.40;99.90
3942;DHT22;1985;48.592;8.850;2024-01-30T00:43:43;4.40;99.90
3942;DHT22;1985;48.592;8.850;2024-01-30T00:46:08;4.40;99.90
3942;DHT22;1985;48.592;8.850;2024-01-30T00:48:34;4.40;99.90
3942;DHT22;1985;48.592;8.850;2024-01-30T00:51:00;4.30;99.90
3942;DHT22;1985;48.592;8.850;2024-01-30T00:53:26;4.30;99.90
3942;DHT22;1985;48.592;8.850;2024-01-30T00:55:51;4.20;99.90
3942;DHT22;1985;48.592;8.850;2024-01-30T00:58:17;4.30;99.90
3942;DHT22;1985;48.592;8.850;2024-01-30T01:00:44;4.30;99.90
3942;DHT22;1985;48.592;8.850;2024-01-30T01:03:10;4.30;99.90
3942;DHT22;1985;48.592;8.850;2024-01-30T01:05:36;4.30;99.90
3942;DHT22;1985;48.592;8.850;2024-01-30T01:08:02;4.20;99.90
3942;DHT22;1985;48.592;8.850;2024-01-30T01:10:27;4.20;99.90
3942;DHT22;1985;48.592;8.850;2024-01-30T01:12:54;4.10;99.90
3942;DHT22;1985;48.592;8.850;2024-01-30T01:15:19;4.10;99.90
3942;DHT22;1985;48.592;8.850;2024-01-30T01:17:45;4.20;99.90
3942;DHT22;1985;48.592;8.850;2024-01-30T01:20:11;4.20;99.90
3942;DHT22;1985;48.592;8.850;2024-01-30T01:22:37;4.10;99.90
3942;DHT22;1985;48.592;8.850;2024-01-30T01:25:04;4.10;99.90
3942;DHT22;1985;48.592;8.850;2024-01-30T01:27:32;4.00;99.90
3942;DHT22;1985;48.592;8.850;2024-01-30T01:29:59;4.00;99.90
3942;DHT22;1985;48.592;8.850;2024-01-30T01:32:25;4.10;99.90
3942;DHT22;1985;48.592;8.850;2024-01-30T01:34:51;4.00;99.90
3942;DHT22;1985;48.592;8.850;2024-01-30T01:37:17;4.00;99.90
3942;DHT22;1985;48.592;8.850;2024-01-30T01:39:42;4.00;99.90
3942;DHT22;1985;48.592;8.850;2024-01-30T01:42:08;4.00;99.90
3942;DHT22;1985;48.592;8.850;2024-01-30T01:44:33;4.00;99.90
3942;DHT22;1985;48.592;8.850;2024-01-30T01:46:59;4.00;99.90
3942;DHT22;1985;48.592;8.850;2024-01-30T01:49:25;3.90;99.90
3942;DHT22;1985;48.592;8.850;2024-01-30T01:51:55;3.90;99.90
3942;DHT22;1985;48.592;8.850;2024-01-30T01:54:22;3.90;99.90
3942;DHT22;1985;48.592;8.850;2024-01-30T01:56:49;3.90;99.90
3942;DHT22;1985;48.592;8.850;2024-01-30T01:59:15;3.80;99.90
3942;DHT22;1985;48.592;8.850;2024-01-30T02:01:41;3.80;99.90
3942;DHT22;1985;48.592;8.850;2024-01-30T02:04:08;3.90;99.90
3942;DHT22;1985;48.592;8.850;2024-01-30T02:06:34;3.90;99.90
3942;DHT22;1985;48.592;8.850;2024-01-30T02:09:00;3.80;99.90
3942;DHT22;1985;48.592;8.850;2024-01-30T02:11:26;3.80;99.90
3942;DHT22;1985;48.592;8.850;2024-01-30T02:13:53;3.80;99.90
3942;DHT22;1985;48.592;8.850;2024-01-30T02:16:18;3.80;99.90
3942;DHT22;1985;48.592;8.850;2024-01-30T02:18:44;3.80;99.90
3942;DHT22;1985;48.592;8.850;2024-01-30T02:21:14;3.80;99.90
3942;DHT22;1985;48.592;8.850;2024-01-30T02:23:41;3.80;99.90
3942;DHT22;1985;48.592;8.850;2024-01-30T02:26:08;3.80;99.90
3942;DHT22;1985;48.592;8.850;2024-01-30T02:28:33;3.80;99.90
3942;DHT22;1985;48.592;8.850;2024-01-30T02:30:59;3.80;99.90
3942;DHT22;1985;48.592;8.850;2024-01-30T02:33:25;3.80;99.90
3942;DHT22;1985;48.592;8.850;2024-01-30T02:35:50;3.90;99.90
3942;DHT22;1985;48.592;8.850;2024-01-30T02:38:16;3.90;99.90
3942;DHT22;1985;48.592;8.850;2024-01-30T02:40:42;3.80;99.90
3942;DHT22;1985;48.592;8.850;2024-01-30T02:43:07;3.80;99.90
3942;DHT22;1985;48.592;8.850;2024-01-30T02:45:33;3.80;99.90
3942;DHT22;1985;48.592;8.850;2024-01-30T02:47:59;3.80;99.90
3942;DHT22;1985;48.592;8.850;2024-01-30T02:50:24;3.80;99.90
3942;DHT22;1985;48.592;8.850;2024-01-30T02:52:50;3.70;99.90
3942;DHT22;1985;48.592;8.850;2024-01-30T02:55:16;3.70;99.90
3942;DHT22;1985;48.592;8.850;2024-01-30T02:57:45;3.70;99.90
3942;DHT22;1985;48.592;8.850;2024-01-30T03:00:11;3.70;99.90
3942;DHT22;1985;48.592;8.850;2024-01-30T03:02:37;3.70;99.90
3942;DHT22;1985;48.592;8.850;2024-01-30T03:05:03;3.70;99.90
3942;DHT22;1985;48.592;8.850;2024-01-30T03:07:29;3.70;99.90
3942;DHT22;1985;48.592;8.850;2024-01-30T03:09:55;3.60;99.90
3942;DHT22;1985;48.592;8.850;2024-01-30T03:12:21;3.60;99.90
3942;DHT22;1985;48.592;8.850;2024-01-30T03:14:47;3.60;99.90
3942;DHT22;1985;48.592;8.850;2024-01-30T03:17:13;3.50;99.90
3942;DHT22;1985;48.592;8.850;2024-01-30T03:19:39;3.60;99.90
3942;DHT22;1985;48.592;8.850;2024-01-30T03:22:04;3.50;99.90
3942;DHT22;1985;48.592;8.850;2024-01-30T03:24:30;3.50;99.90
3942;DHT22;1985;48.592;8.850;2024-01-30T03:26:56;3.50;99.90
3942;DHT22;1985;48.592;8.850;2024-01-30T03:29:21;3.50;99.90
3942;DHT22;1985;48.592;8.850;2024-01-30T03:31:47;3.50;99.90
3942;DHT22;1985;48.592;8.850;2024-01-30T03:34:13;3.60;99.90
3942;DHT22;1985;48.592;8.850;2024-01-30T03:36:38;3.60;99.90
3942;DHT22;1985;48.592;8.850;2024-01-30T03:39:04;3.60;99.90
3942;DHT22;1985;48.592;8.850;2024-01-30T03:41:30;3.60;99.90
3942;DHT22;1985;48.592;8.850;2024-01-30T03:43:55;3.50;99.90
3942;DHT22;1985;48.592;8.850;2024-01-30T03:46:21;3.50;99.90
3942;DHT22;1985;48.592;8.850;2024-01-30T03:48:46;3.50;99.90
3942;DHT22;1985;48.592;8.850;2024-01-30T03:51:12;3.40;99.90
3942;DHT22;1985;48.592;8.850;2024-01-30T03:53:44;3.40;99.90
3942;DHT22;1985;48.592;8.850;2024-01-30T03:56:11;3.40;99.90
3942;DHT22;1985;48.592;8.850;2024-01-30T03:58:39;3.40;99.90
3942;DHT22;1985;48.592;8.850;2024-01-30T04:01:05;3.40;99.90
3942;DHT22;1985;48.592;8.850;2024-01-30T04:03:30;3.40;99.90
3942;DHT22;1985;48.592;8.850;2024-01-30T04:05:56;3.30;99.90
3942;DHT22;1985;48.592;8.850;2024-01-30T04:08:22;3.30;99.90
3942;DHT22;1985;48.592;8.850;2024-01-30T04:10:47;3.40;99.90
3942;DHT22;1985;48.592;8.850;2024-01-30T04:13:13;3.40;99.90
3942;DHT22;1985;48.592;8.850;2024-01-30T04:15:39;3.30;99.90
3942;DHT22;1985;48.592;8.850;2024-01-30T04:18:05;3.30;99.90
3942;DHT22;1985;48.592;8.850;2024-01-30T04:20:31;3.30;99.90
3942;DHT22;1985;48.592;8.850;2024-01-30T04:22:57;3.30;99.90
3942;DHT22;1985;48.592;8.850;2024-01-30T04:25:22;3.30;99.90
3942;DHT22;1985;48.592;8.850;2024-01-30T04:27:48;3.20;99.90
3942;DHT22;1985;48.592;8.850;2024-01-30T04:30:14;3.10;99.90
3942;DHT22;1985;48.592;8.850;2024-01-30T04:32:40;3.00;99.90
3942;DHT22;1985;48.592;8.850;2024-01-30T04:35:06;3.00;99.90
3942;DHT22;1985;48.592;8.850;2024-01-30T04:37:31;3.00;99.90
3942;DHT22;1985;48.592;8.850;2024-01-30T04:39:57;3.00;99.90
3942;DHT22;1985;48.592;8.850;2024-01-30T04:42:23;3.00;99.90
3942;DHT22;1985;48.592;8.850;2024-01-30T04:44:49;3.00;99.90
3942;DHT22;1985;48.592;8.850;2024-01-30T04:47:14;3.00;99.90
3942;DHT22;1985;48.592;8.850;2024-01-30T04:49:41;2.90;99.90
3942;DHT22;1985;48.592;8.850;2024-01-30T04:52:07;2.90;99.90
3942;DHT22;1985;48.592;8.850;2024-01-30T04:54:33;3.00;99.90
3942;DHT22;1985;48.592;8.850;2024-01-30T04:57:00;3.00;99.90
3942;DHT22;1985;48.592;8.850;2024-01-30T04:59:25;3.00;99.90
3942;DHT22;1985;48.592;8.850;2024-01-30T05:01:51;3.10;99.90
3942;DHT22;1985;48.592;8.850;2024-01-30T05:04:17;3.00;99.90
3942;DHT22;1985;48.592;8.850;2024-01-30T05:06:42;3.00;99.90
3942;DHT22;1985;48.592;8.850;2024-01-30T05:09:08;3.00;99.90
3942;DHT22;1985;48.592;8.850;2024-01-30T05:11:38;3.00;99.90
3942;DHT22;1985;48.592;8.850;2024-01-30T05:14:04;3.00;99.90
3942;DHT22;1985;48.592;8.850;2024-01-30T05:16:31;2.90;99.90
3942;DHT22;1985;48.592;8.850;2024-01-30T05:18:57;2.90;99.90
3942;DHT22;1985;48.592;8.850;2024-01-30T05:21:23;2.90;99.90
3942;DHT22;1985;48.592;8.850;2024-01-30T05:23:48;2.90;99.90
3942;DHT22;1985;48.592;8.850;2024-01-30T05:26:14;2.90;99.90
3942;DHT22;1985;48.592;8.850;2024-01-30T05:28:39;2.80;99.90
3942;DHT22;1985;48.592;8.850;2024-01-30T05:31:05;2.90;99.90
3942;DHT22;1985;48.592;8.850;2024-01-30T05:33:31;2.80;99.90
3942;DHT22;1985;48.592;8.850;2024-01-30T05:35:56;2.80;99.90
3942;DHT22;1985;48.592;8.850;2024-01-30T05:38:22;2.80;99.90
3942;DHT22;1985;48.592;8.850;2024-01-30T05:40:47;2.80;99.90
3942;DHT22;1985;48.592;8.850;2024-01-30T05:43:13;2.80;99.90
3942;DHT22;1985;48.592;8.850;2024-01-30T05:45:39;2.80;99.90
3942;DHT22;1985;48.592;8.850;2024-01-30T05:48:05;2.80;99.90
3942;DHT22;1985;48.592;8.850;2024-01-30T05:50:31;2.80;99.90
3942;DHT22;1985;48.592;8.850;2024-01-30T05:52:56;2.80;99.90
3942;DHT22;1985;48.592;8.850;2024-01-30T05:55:22;2.80;99.90
3942;DHT22;1985;48.592;8.850;2024-01-30T05:57:48;2.80;99.90
3942;DHT22;1985;48.592;8.850;2024-01-30T06:00:14;2.80;99.90
3942;DHT22;1985;48.592;8.850;2024-01-30T06:02:39;2.80;99.90
3942;DHT22;1985;48.592;8.850;2024-01-30T06:05:05;2.80;99.90
3942;DHT22;1985;48.592;8.850;2024-01-30T06:07:31;2.90;99.90
3942;DHT22;1985;48.592;8.850;2024-01-30T06:09:57;2.90;99.90
3942;DHT22;1985;48.592;8.850;2024-01-30T06:12:23;2.90;99.90
3942;DHT22;1985;48.592;8.850;2024-01-30T06:14:48;2.90;99.90
3942;DHT22;1985;48.592;8.850;2024-01-30T06:17:14;2.90;99.90
3942;DHT22;1985;48.592;8.850;2024-01-30T06:19:40;2.90;99.90
3942;DHT22;1985;48.592;8.850;2024-01-30T06:22:05;2.90;99.90
3942;DHT22;1985;48.592;8.850;2024-01-30T06:24:31;2.90;99.90
3942;DHT22;1985;48.592;8.850;2024-01-30T06:26:57;2.90;99.90
3942;DHT22;1985;48.592;8.850;2024-01-30T06:29:22;2.80;99.90
3942;DHT22;1985;48.592;8.850;2024-01-30T06:31:50;2.90;99.90
3942;DHT22;1985;48.592;8.850;2024-01-30T06:34:16;2.80;99.90
3942;DHT22;1985;48.592;8.850;2024-01-30T06:36:41;2.90;99.90
3942;DHT22;1985;48.592;8.850;2024-01-30T06:39:07;2.80;99.90
3942;DHT22;1985;48.592;8.850;2024-01-30T06:41:33;2.90;99.90
3942;DHT22;1985;48.592;8.850;2024-01-30T06:43:59;2.80;99.90
3942;DHT22;1985;48.592;8.850;2024-01-30T06:46:24;2.80;99.90
3942;DHT22;1985;48.592;8.850;2024-01-30T06:48:50;2.80;99.90
3942;DHT22;1985;48.592;8.850;2024-01-30T06:51:16;2.80;99.90
3942;DHT22;1985;48.592;8.850;2024-01-30T06:53:41;2.70;99.90
3942;DHT22;1985;48.592;8.850;2024-01-30T06:56:08;2.80;99.90
3942;DHT22;1985;48.592;8.850;2024-01-30T06:58:33;2.90;99.90
3942;DHT22;1985;48.592;8.850;2024-01-30T07:00:59;2.90;99.90
3942;DHT22;1985;48.592;8.850;2024-01-30T07:03:24;2.80;99.90
3942;DHT22;1985;48.592;8.850;2024-01-30T07:05:50;2.90;99.90
3942;DHT22;1985;48.592;8.850;2024-01-30T07:08:17;2.90;99.90
3942;DHT22;1985;48.592;8.850;2024-01-30T07:10:43;2.90;99.90
3942;DHT22;1985;48.592;8.850;2024-01-30T07:13:10;3.00;99.90
3942;DHT22;1985;48.592;8.850;2024-01-30T07:15:35;3.00;99.90
3942;DHT22;1985;48.592;8.850;2024-01-30T07:18:02;3.00;99.90
3942;DHT22;1985;48.592;8.850;2024-01-30T07:20:28;3.00;99.90
3942;DHT22;1985;48.592;8.850;2024-01-30T07:22:56;3.10;99.90
3942;DHT22;1985;48.592;8.850;2024-01-30T07:25:21;3.10;99.90
3942;DHT22;1985;48.592;8.850;2024-01-30T07:27:54;3.10;99.90
3942;DHT22;1985;48.592;8.850;2024-01-30T07:30:20;3.20;99.90
3942;DHT22;1985;48.592;8.850;2024-01-30T07:32:47;3.30;99.90
3942;DHT22;1985;48.592;8.850;2024-01-30T07:35:13;3.30;99.90
3942;DHT22;1985;48.592;8.850;2024-01-30T07:37:39;3.30;99.90
3942;DHT22;1985;48.592;8.850;2024-01-30T07:40:06;3.10;99.90
3942;DHT22;1985;48.592;8.850;2024-01-30T07:42:32;2.90;99.90
3942;DHT22;1985;48.592;8.850;2024-01-30T07:44:59;2.80;99.90
3942;DHT22;1985;48.592;8.850;2024-01-30T07:47:24;2.90;99.90
3942;DHT22;1985;48.592;8.850;2024-01-30T07:49:50;3.00;99.90
3942;DHT22;1985;48.592;8.850;2024-01-30T07:52:16;3.20;99.90
3942;DHT22;1985;48.592;8.850;2024-01-30T07:54:42;3.30;99.90
3942;DHT22;1985;48.592;8.850;2024-01-30T07:57:08;3.50;99.90
3942;DHT22;1985;48.592;8.850;2024-01-30T07:59:33;3.60;99.90
3942;DHT22;1985;48.592;8.850;2024-01-30T08:01:59;3.70;99.90
3942;DHT22;1985;48.592;8.850;2024-01-30T08:04:25;3.90;99.90
3942;DHT22;1985;48.592;8.850;2024-01-30T08:06:50;4.00;99.90
3942;DHT22;1985;48.592;8.850;2024-01-30T08:09:16;4.20;99.90
3942;DHT22;1985;48.592;8.850;2024-01-30T08:11:42;4.30;99.90
3942;DHT22;1985;48.592;8.850;2024-01-30T08:14:08;4.40;99.90
3942;DHT22;1985;48.592;8.850;2024-01-30T08:16:33;4.50;99.90
3942;DHT22;1985;48.592;8.850;2024-01-30T08:18:59;4.60;99.90
3942;DHT22;1985;48.592;8.850;2024-01-30T08:21:26;4.70;99.90
3942;DHT22;1985;48.592;8.850;2024-01-30T08:23:52;4.60;99.90
3942;DHT22;1985;48.592;8.850;2024-01-30T08:26:18;4.60;99.90
3942;DHT22;1985;48.592;8.850;2024-01-30T08:28:43;4.70;99.90
3942;DHT22;1985;48.592;8.850;2024-01-30T08:31:10;4.70;99.90
3942;DHT22;1985;48.592;8.850;2024-01-30T08:33:37;4.80;99.90
3942;DHT22;1985;48.592;8.850;2024-01-30T08:36:03;4.90;99.90
3942;DHT22;1985;48.592;8.850;2024-01-30T08:38:28;4.90;99.90
3942;DHT22;1985;48.592;8.850;2024-01-30T08:40:55;5.00;99.90
3942;DHT22;1985;48.592;8.850;2024-01-30T08:43:20;5.10;99.90
3942;DHT22;1985;48.592;8.850;2024-01-30T08:45:46;5.30;99.90
3942;DHT22;1985;48.592;8.850;2024-01-30T08:48:12;5.40;99.90
3942;DHT22;1985;48.592;8.850;2024-01-30T08:50:37;5.50;99.90
3942;DHT22;1985;48.592;8.850;2024-01-30T08:53:04;5.50;99.90
3942;DHT22;1985;48.592;8.850;2024-01-30T08:55:30;5.40;99.90
3942;DHT22;1985;48.592;8.850;2024-01-30T08:57:55;5.50;99.90
3942;DHT22;1985;48.592;8.850;2024-01-30T09:00:21;5.60;99.90
3942;DHT22;1985;48.592;8.850;2024-01-30T09:02:47;5.80;99.90
3942;DHT22;1985;48.592;8.850;2024-01-30T09:05:12;5.90;99.90
3942;DHT22;1985;48.592;8.850;2024-01-30T09:07:38;6.00;99.90
3942;DHT22;1985;48.592;8.850;2024-01-30T09:10:04;6.10;99.90
3942;DHT22;1985;48.592;8.850;2024-01-30T09:12:30;6.10;99.90
3942;DHT22;1985;48.592;8.850;2024-01-30T09:14:56;6.30;99.90
3942;DHT22;1985;48.592;8.850;2024-01-30T09:17:21;6.30;99.90
3942;DHT22;1985;48.592;8.850;2024-01-30T09:19:47;6.40;99.90
3942;DHT22;1985;48.592;8.850;2024-01-30T09:22:12;6.50;99.90
3942;DHT22;1985;48.592;8.850;2024-01-30T09:24:38;6.80;99.90
3942;DHT22;1985;48.592;8.850;2024-01-30T09:27:04;7.00;99.90
3942;DHT22;1985;48.592;8.850;2024-01-30T09:29:30;7.20;99.90
3942;DHT22;1985;48.592;8.850;2024-01-30T09:31:55;7.10;99.90
3942;DHT22;1985;48.592;8.850;2024-01-30T09:34:21;7.20;99.90
3942;DHT22;1985;48.592;8.850;2024-01-30T09:36:47;7.30;99.90
3942;DHT22;1985;48.592;8.850;2024-01-30T09:39:12;7.40;99.90
3942;DHT22;1985;48.592;8.850;2024-01-30T09:41:48;7.20;99.90
3942;DHT22;1985;48.592;8.850;2024-01-30T09:44:16;7.40;99.90
3942;DHT22;1985;48.592;8.850;2024-01-30T09:46:43;7.40;99.90
3942;DHT22;1985;48.592;8.850;2024-01-30T09:49:10;7.40;99.90
3942;DHT22;1985;48.592;8.850;2024-01-30T09:51:36;7.50;99.90
3942;DHT22;1985;48.592;8.850;2024-01-30T09:54:02;7.50;99.90
3942;DHT22;1985;48.592;8.850;2024-01-30T09:56:28;7.60;99.90
3942;DHT22;1985;48.592;8.850;2024-01-30T09:58:54;7.70;99.90
3942;DHT22;1985;48.592;8.850;2024-01-30T10:01:20;7.70;99.90
3942;DHT22;1985;48.592;8.850;2024-01-30T10:03:46;7.60;99.90
3942;DHT22;1985;48.592;8.850;2024-01-30T10:06:12;7.70;99.90
3942;DHT22;1985;48.592;8.850;2024-01-30T10:08:37;7.80;99.90
3942;DHT22;1985;48.592;8.850;2024-01-30T10:11:03;7.80;99.90
3942;DHT22;1985;48.592;8.850;2024-01-30T10:13:29;7.80;99.90
3942;DHT22;1985;48.592;8.850;2024-01-30T10:15:55;7.90;99.90
3942;DHT22;1985;48.592;8.850;2024-01-30T10:18:24;8.10;99.90
3942;DHT22;1985;48.592;8.850;2024-01-30T10:20:51;7.90;99.90
3942;DHT22;1985;48.592;8.850;2024-01-30T10:23:18;7.80;99.90
3942;DHT22;1985;48.592;8.850;2024-01-30T10:25:44;8.00;99.90
3942;DHT22;1985;48.592;8.850;2024-01-30T10:28:11;8.30;99.90
3942;DHT22;1985;48.592;8.850;2024-01-30T10:30:36;8.70;99.90
3942;DHT22;1985;48.592;8.850;2024-01-30T10:33:02;9.10;99.90
3942;DHT22;1985;48.592;8.850;2024-01-30T10:35:28;9.40;99.90
3942;DHT22;1985;48.592;8.850;2024-01-30T10:37:57;9.50;99.90
3942;DHT22;1985;48.592;8.850;2024-01-30T10:40:27;9.70;99.90
3942;DHT22;1985;48.592;8.850;2024-01-30T10:42:55;10.10;99.80
3942;DHT22;1985;48.592;8.850;2024-01-30T10:45:22;10.40;98.70
3942;DHT22;1985;48.592;8.850;2024-01-30T10:47:53;11.00;98.10
3942;DHT22;1985;48.592;8.850;2024-01-30T10:50:20;11.60;95.50
3942;DHT22;1985;48.592;8.850;2024-01-30T10:52:46;12.40;94.30
3942;DHT22;1985;48.592;8.850;2024-01-30T10:55:13;13.10;91.90
3942;DHT22;1985;48.592;8.850;2024-01-30T10:57:41;13.40;90.10
3942;DHT22;1985;48.592;8.850;2024-01-30T11:00:09;13.30;88.70
3942;DHT22;1985;48.592;8.850;2024-01-30T11:02:40;13.00;86.20
3942;DHT22;1985;48.592;8.850;2024-01-30T11:05:07;12.80;86.80
3942;DHT22;1985;48.592;8.850;2024-01-30T11:07:34;12.60;85.70
3942;DHT22;1985;48.592;8.850;2024-01-30T11:10:01;12.40;87.00
3942;DHT22;1985;48.592;8.850;2024-01-30T11:12:28;12.30;86.50
3942;DHT22;1985;48.592;8.850;2024-01-30T11:15:10;12.30;87.50
3942;DHT22;1985;48.592;8.850;2024-01-30T11:20:16;11.80;88.10
3942;DHT22;1985;48.592;8.850;2024-01-30T11:22:44;11.50;89.30
3942;DHT22;1985;48.592;8.850;2024-01-30T11:25:14;11.50;89.10
3942;DHT22;1985;48.592;8.850;2024-01-30T11:27:42;11.20;90.20
3942;DHT22;1985;48.592;8.850;2024-01-30T11:30:08;11.20;90.80
3942;DHT22;1985;48.592;8.850;2024-01-30T11:32:34;11.30;90.80
3942;DHT22;1985;48.592;8.850;2024-01-30T11:35:02;11.30;90.60
3942;DHT22;1985;48.592;8.850;2024-01-30T11:37:28;11.30;90.70
3942;DHT22;1985;48.592;8.850;2024-01-30T11:39:56;11.10;91.00
3942;DHT22;1985;48.592;8.850;2024-01-30T11:42:23;11.00;91.30
3942;DHT22;1985;48.592;8.850;2024-01-30T11:44:52;10.90;91.60
3942;DHT22;1985;48.592;8.850;2024-01-30T11:47:18;11.00;91.90
3942;DHT22;1985;48.592;8.850;2024-01-30T11:49:43;11.00;92.00
3942;DHT22;1985;48.592;8.850;2024-01-30T11:52:10;11.00;91.60
3942;DHT22;1985;48.592;8.850;2024-01-30T11:54:38;11.10;91.90
3942;DHT22;1985;48.592;8.850;2024-01-30T11:57:04;11.40;91.70
3942;DHT22;1985;48.592;8.850;2024-01-30T11:59:30;11.40;91.40
3942;DHT22;1985;48.592;8.850;2024-01-30T12:01:56;11.30;91.40
3942;DHT22;1985;48.592;8.850;2024-01-30T12:04:22;11.50;91.20
3942;DHT22;1985;48.592;8.850;2024-01-30T12:06:51;11.70;91.30
3942;DHT22;1985;48.592;8.850;2024-01-30T12:09:17;11.80;91.20
3942;DHT22;1985;48.592;8.850;2024-01-30T12:11:49;12.00;90.50
3942;DHT22;1985;48.592;8.850;2024-01-30T12:14:18;12.30;90.30
3942;DHT22;1985;48.592;8.850;2024-01-30T12:16:48;12.50;87.80
3942;DHT22;1985;48.592;8.850;2024-01-30T12:19:24;12.60;89.00
3942;DHT22;1985;48.592;8.850;2024-01-30T12:21:54;12.90;87.40
3942;DHT22;1985;48.592;8.850;2024-01-30T12:24:21;13.40;88.30
3942;DHT22;1985;48.592;8.850;2024-01-30T12:26:47;14.00;85.10
3942;DHT22;1985;48.592;8.850;2024-01-30T12:29:14;14.80;84.00
3942;DHT22;1985;48.592;8.850;2024-01-30T12:31:42;15.70;82.80
3942;DHT22;1985;48.592;8.850;2024-01-30T12:34:08;16.30;79.40
3942;DHT22;1985;48.592;8.850;2024-01-30T12:36:34;16.80;74.30
3942;DHT22;1985;48.592;8.850;2024-01-30T12:39:00;17.80;73.60
3942;DHT22;1985;48.592;8.850;2024-01-30T12:41:26;18.50;70.70
3942;DHT22;1985;48.592;8.850;2024-01-30T12:43:57;18.70;66.50
3942;DHT22;1985;48.592;8.850;2024-01-30T12:46:28;18.50;64.10
3942;DHT22;1985;48.592;8.850;2024-01-30T12:48:54;19.20;64.50
3942;DHT22;1985;48.592;8.850;2024-01-30T12:51:20;20.30;62.10
3942;DHT22;1985;48.592;8.850;2024-01-30T12:53:45;21.60;59.70
3942;DHT22;1985;48.592;8.850;2024-01-30T12:56:13;22.80;56.60
3942;DHT22;1985;48.592;8.850;2024-01-30T12:58:40;23.90;53.90
3942;DHT22;1985;48.592;8.850;2024-01-30T13:01:08;24.80;50.50
3942;DHT22;1985;48.592;8.850;2024-01-30T13:03:34;25.00;46.80
3942;DHT22;1985;48.592;8.850;2024-01-30T13:06:00;23.30;47.60
3942;DHT22;1985;48.592;8.850;2024-01-30T13:08:25;21.80;49.10
3942;DHT22;1985;48.592;8.850;2024-01-30T13:10:51;20.70;51.20
3942;DHT22;1985;48.592;8.850;2024-01-30T13:13:17;20.00;52.70
3942;DHT22;1985;48.592;8.850;2024-01-30T13:15:42;19.40;55.40
3942;DHT22;1985;48.592;8.850;2024-01-30T13:18:08;20.10;55.50
3942;DHT22;1985;48.592;8.850;2024-01-30T13:20:34;20.40;54.30
3942;DHT22;1985;48.592;8.850;2024-01-30T13:22:59;20.20;54.40
3942;DHT22;1985;48.592;8.850;2024-01-30T13:25:25;20.00;54.80
3942;DHT22;1985;48.592;8.850;2024-01-30T13:27:51;19.70;54.40
3942;DHT22;1985;48.592;8.850;2024-01-30T13:30:16;18.90;55.00
3942;DHT22;1985;48.592;8.850;2024-01-30T13:32:42;17.50;55.90
3942;DHT22;1985;48.592;8.850;2024-01-30T13:35:10;16.40;58.70
3942;DHT22;1985;48.592;8.850;2024-01-30T13:37:35;16.10;60.40
3942;DHT22;1985;48.592;8.850;2024-01-30T13:40:04;16.10;61.60
3942;DHT22;1985;48.592;8.850;2024-01-30T13:42:32;15.50;61.80
3942;DHT22;1985;48.592;8.850;2024-01-30T13:44:58;14.90;63.60
3942;DHT22;1985;48.592;8.850;2024-01-30T13:47:23;14.40;66.90
3942;DHT22;1985;48.592;8.850;2024-01-30T13:49:49;14.20;68.50
3942;DHT22;1985;48.592;8.850;2024-01-30T13:52:15;14.50;69.80
3942;DHT22;1985;48.592;8.850;2024-01-30T13:54:40;14.80;68.60
3942;DHT22;1985;48.592;8.850;2024-01-30T13:57:06;15.20;68.60
3942;DHT22;1985;48.592;8.850;2024-01-30T13:59:34;15.30;68.50
3942;DHT22;1985;48.592;8.850;2024-01-30T14:01:59;15.30;68.80
3942;DHT22;1985;48.592;8.850;2024-01-30T14:04:25;15.30;68.90
3942;DHT22;1985;48.592;8.850;2024-01-30T14:06:51;15.30;69.20
3942;DHT22;1985;48.592;8.850;2024-01-30T14:09:16;15.30;68.60
3942;DHT22;1985;48.592;8.850;2024-01-30T14:11:42;14.90;70.20
3942;DHT22;1985;48.592;8.850;2024-01-30T14:14:08;14.60;71.30
3942;DHT22;1985;48.592;8.850;2024-01-30T14:16:34;14.30;73.20
3942;DHT22;1985;48.592;8.850;2024-01-30T14:19:00;14.10;74.00
3942;DHT22;1985;48.592;8.850;2024-01-30T14:21:25;14.20;75.20
3942;DHT22;1985;48.592;8.850;2024-01-30T14:23:51;14.30;74.50
3942;DHT22;1985;48.592;8.850;2024-01-30T14:26:16;14.10;75.50
3942;DHT22;1985;48.592;8.850;2024-01-30T14:28:43;14.20;75.20
3942;DHT22;1985;48.592;8.850;2024-01-30T14:31:11;14.20;75.20
3942;DHT22;1985;48.592;8.850;2024-01-30T14:33:37;14.30;75.70
3942;DHT22;1985;48.592;8.850;2024-01-30T14:36:02;14.30;75.90
3942;DHT22;1985;48.592;8.850;2024-01-30T14:38:28;14.10;76.00
3942;DHT22;1985;48.592;8.850;2024-01-30T14:40:54;13.90;75.70
3942;DHT22;1985;48.592;8.850;2024-01-30T14:43:19;13.80;77.20
3942;DHT22;1985;48.592;8.850;2024-01-30T14:45:45;13.70;78.30
3942;DHT22;1985;48.592;8.850;2024-01-30T14:48:14;13.60;79.20
3942;DHT22;1985;48.592;8.850;2024-01-30T14:50:40;13.30;81.20
3942;DHT22;1985;48.592;8.850;2024-01-30T14:53:05;13.20;80.30
3942;DHT22;1985;48.592;8.850;2024-01-30T14:55:32;13.00;81.60
3942;DHT22;1985;48.592;8.850;2024-01-30T14:57:58;13.00;81.90
3942;DHT22;1985;48.592;8.850;2024-01-30T15:00:25;12.80;82.40
3942;DHT22;1985;48.592;8.850;2024-01-30T15:02:50;12.80;82.60
3942;DHT22;1985;48.592;8.850;2024-01-30T15:05:16;12.70;82.50
3942;DHT22;1985;48.592;8.850;2024-01-30T15:07:42;12.70;83.30
3942;DHT22;1985;48.592;8.850;2024-01-30T15:10:10;12.60;80.90
3942;DHT22;1985;48.592;8.850;2024-01-30T15:12:37;12.40;81.40
3942;DHT22;1985;48.592;8.850;2024-01-30T15:15:04;12.40;82.20
3942;DHT22;1985;48.592;8.850;2024-01-30T15:17:30;12.30;82.40
3942;DHT22;1985;48.592;8.850;2024-01-30T15:19:56;12.20;82.30
3942;DHT22;1985;48.592;8.850;2024-01-30T15:22:22;12.10;83.60
3942;DHT22;1985;48.592;8.850;2024-01-30T15:24:49;12.10;83.80
3942;DHT22;1985;48.592;8.850;2024-01-30T15:27:14;12.00;84.50
3942;DHT22;1985;48.592;8.850;2024-01-30T15:29:40;12.00;85.20
3942;DHT22;1985;48.592;8.850;2024-01-30T15:32:06;11.90;85.90
3942;DHT22;1985;48.592;8.850;2024-01-30T15:34:31;11.90;86.40
3942;DHT22;1985;48.592;8.850;2024-01-30T15:36:57;11.80;86.90
3942;DHT22;1985;48.592;8.850;2024-01-30T15:39:23;11.70;87.40
3942;DHT22;1985;48.592;8.850;2024-01-30T15:41:48;11.70;88.60
3942;DHT22;1985;48.592;8.850;2024-01-30T15:44:14;11.60;89.30
3942;DHT22;1985;48.592;8.850;2024-01-30T15:46:40;11.60;90.00
3942;DHT22;1985;48.592;8.850;2024-01-30T15:49:05;11.50;90.10
3942;DHT22;1985;48.592;8.850;2024-01-30T15:51:32;11.40;90.40
3942;DHT22;1985;48.592;8.850;2024-01-30T15:53:57;11.30;90.80
3942;DHT22;1985;48.592;8.850;2024-01-30T15:56:23;11.20;91.10
3942;DHT22;1985;48.592;8.850;2024-01-30T15:58:49;11.10;91.60
3942;DHT22;1985;48.592;8.850;2024-01-30T16:01:17;11.10;91.90
3942;DHT22;1985;48.592;8.850;2024-01-30T16:03:43;11.00;92.20
3942;DHT22;1985;48.592;8.850;2024-01-30T16:06:13;11.00;92.40
3942;DHT22;1985;48.592;8.850;2024-01-30T16:08:39;10.90;92.70